createdAt,value
2018-06-27T00:00:57.758Z,15.20
2018-06-27T00:03:30.212Z,15.20
2018-06-27T00:06:02.733Z,15.20
2018-06-27T00:08:35.138Z,15.20
2018-06-27T00:11:08.053Z,15.20
2018-06-27T00:13:41.191Z,15.10
2018-06-27T00:16:13.671Z,15.10
2018-06-27T00:18:46.222Z,15.10
2018-06-27T00:21:18.667Z,15.10
2018-06-27T00:23:51.135Z,15.10
2018-06-27T00:26:24.209Z,15.10
2018-06-27T00:28:56.657Z,15.00
2018-06-27T00:31:29.270Z,15.10
2018-06-27T00:34:01.865Z,15.00
2018-06-27T00:36:34.314Z,14.90
2018-06-27T00:39:08.412Z,14.90
2018-06-27T00:41:41.618Z,14.90
2018-06-27T00:44:14.089Z,14.90
2018-06-27T00:46:46.495Z,14.90
2018-06-27T00:49:19.239Z,14.80
2018-06-27T00:51:51.669Z,14.80
2018-06-27T00:54:24.589Z,14.80
2018-06-27T00:56:56.998Z,14.70
2018-06-27T00:59:30.452Z,14.70
2018-06-27T01:02:02.931Z,14.70
2018-06-27T01:04:35.436Z,14.60
2018-06-27T01:07:07.903Z,14.70
2018-06-27T01:09:40.342Z,14.60
2018-06-27T01:12:12.914Z,14.60
2018-06-27T01:14:45.337Z,14.60
2018-06-27T01:17:17.822Z,14.60
2018-06-27T01:19:50.339Z,14.60
2018-06-27T01:22:22.784Z,14.60
2018-06-27T01:24:55.328Z,14.70
2018-06-27T01:27:27.743Z,14.60
2018-06-27T01:30:00.135Z,14.60
2018-06-27T01:37:37.871Z,14.60
2018-06-27T01:40:10.325Z,14.50
2018-06-27T01:42:43.126Z,14.50
2018-06-27T01:45:15.559Z,14.50
2018-06-27T01:47:48.021Z,14.40
2018-06-27T01:52:54.969Z,14.50
2018-06-27T01:55:27.468Z,14.50
2018-06-27T01:58:00.126Z,14.50
2018-06-27T02:00:32.601Z,14.60
2018-06-27T02:03:06.076Z,14.60
2018-06-27T02:05:38.533Z,14.60
2018-06-27T02:08:10.973Z,14.50
2018-06-27T02:10:43.441Z,14.50
2018-06-27T02:13:15.901Z,14.50
2018-06-27T02:15:48.346Z,14.50
2018-06-27T02:18:20.782Z,14.50
2018-06-27T02:20:53.275Z,14.50
2018-06-27T02:23:25.734Z,14.50
2018-06-27T02:25:58.198Z,14.50
2018-06-27T02:28:30.694Z,14.50
2018-06-27T02:31:03.175Z,14.60
2018-06-27T02:33:35.646Z,14.60
2018-06-27T02:36:08.089Z,14.50
2018-06-27T02:38:40.541Z,14.50
2018-06-27T02:43:45.438Z,14.60
2018-06-27T02:46:17.938Z,14.50
2018-06-27T02:48:50.718Z,14.50
2018-06-27T02:51:23.193Z,14.50
2018-06-27T02:53:55.684Z,14.50
2018-06-27T02:56:28.534Z,14.50
2018-06-27T02:59:00.960Z,14.50
2018-06-27T03:01:33.462Z,14.50
2018-06-27T03:04:05.910Z,14.40
2018-06-27T03:06:38.390Z,14.40
2018-06-27T03:09:11.340Z,14.40
2018-06-27T03:11:43.757Z,14.40
2018-06-27T03:14:16.480Z,14.40
2018-06-27T03:16:48.897Z,14.50
2018-06-27T03:19:21.379Z,14.40
2018-06-27T03:21:53.906Z,14.40
2018-06-27T03:24:26.374Z,14.50
2018-06-27T03:26:58.847Z,14.40
2018-06-27T03:29:31.311Z,14.40
2018-06-27T03:32:03.791Z,14.40
2018-06-27T03:34:36.266Z,14.40
2018-06-27T03:37:08.891Z,14.30
2018-06-27T03:39:41.428Z,14.30
2018-06-27T03:42:14.017Z,14.20
2018-06-27T03:44:46.506Z,14.20
2018-06-27T03:47:18.959Z,14.20
2018-06-27T03:49:51.431Z,14.20
2018-06-27T03:52:23.898Z,14.20
2018-06-27T03:54:56.349Z,14.20
2018-06-27T03:57:28.807Z,14.30
2018-06-27T04:00:01.346Z,14.40
2018-06-27T04:02:35.409Z,14.50
2018-06-27T04:05:07.903Z,14.50
2018-06-27T04:07:40.434Z,14.60
2018-06-27T04:10:13.035Z,14.70
2018-06-27T04:12:45.538Z,14.70
2018-06-27T04:15:17.993Z,14.70
2018-06-27T04:17:51.084Z,14.70
2018-06-27T04:20:23.545Z,14.70
2018-06-27T04:22:56.053Z,14.70
2018-06-27T04:25:28.474Z,14.90
2018-06-27T04:28:01.110Z,15.00
2018-06-27T04:33:06.143Z,15.10
2018-06-27T04:35:38.607Z,15.20
2018-06-27T04:38:11.104Z,15.20
2018-06-27T04:40:44.007Z,15.20
2018-06-27T04:43:17.836Z,15.20
2018-06-27T04:45:50.273Z,15.30
2018-06-27T04:48:22.736Z,15.40
2018-06-27T04:50:55.223Z,15.40
2018-06-27T04:53:28.062Z,15.50
2018-06-27T04:56:00.581Z,15.50
2018-06-27T04:58:33.302Z,15.60
2018-06-27T05:01:05.750Z,15.60
2018-06-27T05:03:38.971Z,15.70
2018-06-27T05:06:11.486Z,15.90
2018-06-27T05:08:43.938Z,16.00
2018-06-27T05:11:16.695Z,16.00
2018-06-27T05:13:49.395Z,16.10
2018-06-27T05:16:22.142Z,16.20
2018-06-27T05:18:54.703Z,16.30
2018-06-27T05:21:27.112Z,16.30
2018-06-27T05:24:00.811Z,16.50
2018-06-27T05:26:33.223Z,16.50
2018-06-27T05:29:05.944Z,16.60
2018-06-27T05:31:38.348Z,16.60
2018-06-27T05:34:11.080Z,16.60
2018-06-27T05:36:43.739Z,16.50
2018-06-27T05:39:16.235Z,16.50
2018-06-27T05:41:48.884Z,16.50
2018-06-27T05:44:22.824Z,16.60
2018-06-27T05:46:55.440Z,16.60
2018-06-27T05:49:27.930Z,16.60
2018-06-27T05:54:32.944Z,16.70
2018-06-27T05:57:05.390Z,16.70
2018-06-27T05:59:37.867Z,16.80
2018-06-27T06:02:10.275Z,16.80
2018-06-27T06:04:43.238Z,16.90
2018-06-27T06:07:15.686Z,17.10
2018-06-27T06:09:48.314Z,17.10
2018-06-27T06:12:21.273Z,17.10
2018-06-27T06:14:54.252Z,17.20
2018-06-27T06:17:26.798Z,17.20
2018-06-27T06:19:59.195Z,17.20
2018-06-27T06:22:31.706Z,17.30
2018-06-27T06:25:04.554Z,17.40
2018-06-27T06:27:37.017Z,17.40
2018-06-27T06:30:09.707Z,17.50
2018-06-27T06:32:42.171Z,17.60
2018-06-27T06:35:14.858Z,17.70
2018-06-27T06:37:47.370Z,17.80
2018-06-27T06:40:20.097Z,17.80
2018-06-27T06:42:52.615Z,17.80
2018-06-27T06:45:25.203Z,17.80
2018-06-27T06:50:31.618Z,17.90
2018-06-27T06:53:04.208Z,18.00
2018-06-27T06:55:36.614Z,18.10
2018-06-27T06:58:09.269Z,18.10
2018-06-27T07:00:41.665Z,18.20
2018-06-27T07:03:14.172Z,18.10
2018-06-27T07:05:46.671Z,18.20
2018-06-27T07:08:19.400Z,18.30
2018-06-27T07:10:52.228Z,18.50
2018-06-27T07:13:24.721Z,18.40
2018-06-27T07:15:57.200Z,18.50
2018-06-27T07:18:30.089Z,18.40
2018-06-27T07:21:02.821Z,18.50
2018-06-27T07:23:35.342Z,18.60
2018-06-27T07:26:07.834Z,18.70
2018-06-27T07:28:40.458Z,18.60
2018-06-27T07:31:13.147Z,18.60
2018-06-27T07:33:46.345Z,18.60
2018-06-27T07:36:18.841Z,18.70
2018-06-27T07:38:51.422Z,18.80
2018-06-27T07:41:23.832Z,18.90
2018-06-27T07:43:56.252Z,18.90
2018-06-27T07:46:28.701Z,18.90
2018-06-27T07:49:02.047Z,19.00
2018-06-27T07:51:34.471Z,19.10
2018-06-27T07:54:06.975Z,19.10
2018-06-27T07:56:39.422Z,19.20
2018-06-27T07:59:12.299Z,19.40
2018-06-27T08:01:44.744Z,19.60
2018-06-27T08:04:17.298Z,19.70
2018-06-27T08:06:49.899Z,19.70
2018-06-27T08:09:22.358Z,19.90
2018-06-27T08:11:54.789Z,19.90
2018-06-27T08:14:27.293Z,19.80
2018-06-27T08:16:59.873Z,19.70
2018-06-27T08:19:33.462Z,19.90
2018-06-27T08:22:06.193Z,20.00
2018-06-27T08:24:39.048Z,20.10
2018-06-27T08:27:11.601Z,20.10
2018-06-27T08:29:44.168Z,20.10
2018-06-27T08:32:16.706Z,20.10
2018-06-27T08:34:49.851Z,20.20
2018-06-27T08:37:22.511Z,20.40
2018-06-27T08:39:55.069Z,20.60
2018-06-27T08:42:27.493Z,20.60
2018-06-27T08:45:00.847Z,20.70
2018-06-27T08:47:33.440Z,20.80
2018-06-27T08:50:06.188Z,20.90
2018-06-27T08:52:38.626Z,20.70
2018-06-27T08:55:11.088Z,20.60
2018-06-27T08:57:43.678Z,20.50
2018-06-27T09:00:16.276Z,20.50
2018-06-27T09:02:48.872Z,20.50
2018-06-27T09:05:21.298Z,20.40
2018-06-27T09:07:53.965Z,20.50
2018-06-27T09:10:26.403Z,20.60
2018-06-27T09:12:58.868Z,20.60
2018-06-27T09:15:31.567Z,20.60
2018-06-27T09:18:04.090Z,20.80
2018-06-27T09:20:36.671Z,20.70
2018-06-27T09:23:09.147Z,20.90
2018-06-27T09:25:41.682Z,20.70
2018-06-27T09:28:14.536Z,20.70
2018-06-27T09:30:47.011Z,20.80
2018-06-27T09:33:19.520Z,21.20
2018-06-27T09:35:53.448Z,21.30
2018-06-27T09:38:26.025Z,21.20
2018-06-27T09:40:59.016Z,21.30
2018-06-27T09:48:37.312Z,21.40
2018-06-27T09:51:09.846Z,21.80
2018-06-27T09:53:42.428Z,22.00
2018-06-27T09:56:14.881Z,21.70
2018-06-27T09:58:47.590Z,21.80
2018-06-27T10:01:20.092Z,22.00
2018-06-27T10:03:52.589Z,22.30
2018-06-27T10:06:25.066Z,22.40
2018-06-27T10:08:57.730Z,22.10
2018-06-27T10:11:30.251Z,21.80
2018-06-27T10:14:03.261Z,21.80
2018-06-27T10:16:35.789Z,21.70
2018-06-27T10:19:10.132Z,21.90
2018-06-27T10:21:43.763Z,22.10
2018-06-27T10:24:17.004Z,22.20
2018-06-27T10:26:49.959Z,22.20
2018-06-27T10:29:22.482Z,22.40
2018-06-27T10:31:55.094Z,22.20
2018-06-27T10:34:27.564Z,22.30
2018-06-27T10:37:00.012Z,22.50
2018-06-27T10:39:32.562Z,22.70
2018-06-27T10:42:05.036Z,22.80
2018-06-27T10:44:37.583Z,22.70
2018-06-27T10:47:12.231Z,22.70
2018-06-27T10:49:45.874Z,22.30
2018-06-27T10:52:18.404Z,22.10
2018-06-27T10:54:51.294Z,22.00
2018-06-27T10:57:24.095Z,22.00
2018-06-27T10:59:57.391Z,22.20
2018-06-27T11:02:29.899Z,22.20
2018-06-27T11:05:02.348Z,22.20
2018-06-27T11:07:35.168Z,22.20
2018-06-27T11:10:08.935Z,22.40
2018-06-27T11:12:41.352Z,22.40
2018-06-27T11:15:13.860Z,22.30
2018-06-27T11:17:46.292Z,22.30
2018-06-27T11:20:18.888Z,22.50
2018-06-27T11:22:51.678Z,22.90
2018-06-27T11:25:24.230Z,23.40
2018-06-27T11:27:57.976Z,23.60
2018-06-27T11:30:30.548Z,23.40
2018-06-27T11:33:03.180Z,23.10
2018-06-27T11:35:35.774Z,22.80
2018-06-27T11:38:08.611Z,22.90
2018-06-27T11:40:41.077Z,22.90
2018-06-27T11:43:13.526Z,22.90
2018-06-27T11:45:46.195Z,22.80
2018-06-27T11:48:18.728Z,23.10
2018-06-27T11:50:52.231Z,23.40
2018-06-27T11:53:25.053Z,23.80
2018-06-27T11:55:57.471Z,24.00
2018-06-27T11:58:30.063Z,24.10
2018-06-27T12:01:02.550Z,24.00
2018-06-27T12:03:35.914Z,24.10
2018-06-27T12:06:08.394Z,23.90
2018-06-27T12:08:41.458Z,23.70
2018-06-27T12:13:47.033Z,23.60
2018-06-27T12:16:20.083Z,23.80
2018-06-27T12:18:53.884Z,24.20
2018-06-27T12:21:27.152Z,23.90
2018-06-27T12:24:00.273Z,23.90
2018-06-27T12:26:32.914Z,23.70
2018-06-27T12:29:05.520Z,23.90
2018-06-27T12:31:39.169Z,23.60
2018-06-27T12:34:12.577Z,24.00
2018-06-27T12:36:45.395Z,24.10
2018-06-27T12:39:17.851Z,24.10
2018-06-27T12:41:50.595Z,24.10
2018-06-27T12:44:23.071Z,23.80
2018-06-27T12:46:55.801Z,23.60
2018-06-27T12:49:28.287Z,23.50
2018-06-27T12:52:01.215Z,23.50
2018-06-27T12:54:34.115Z,23.60
2018-06-27T12:57:07.610Z,23.60
2018-06-27T12:59:40.898Z,23.80
2018-06-27T13:02:13.840Z,24.20
2018-06-27T13:04:46.671Z,24.30
2018-06-27T13:09:52.190Z,24.20
2018-06-27T13:12:26.778Z,24.10
2018-06-27T13:14:59.302Z,24.30
2018-06-27T13:17:32.368Z,24.60
2018-06-27T13:20:05.838Z,24.60
2018-06-27T13:22:38.294Z,24.50
2018-06-27T13:25:11.966Z,24.20
2018-06-27T13:30:17.125Z,24.10
2018-06-27T13:32:52.047Z,23.90
2018-06-27T13:35:28.519Z,23.70
2018-06-27T13:38:02.910Z,23.70
2018-06-27T13:40:35.814Z,23.80
2018-06-27T13:43:09.184Z,24.00
2018-06-27T13:45:42.369Z,24.20
2018-06-27T13:50:47.897Z,24.10
2018-06-27T13:53:20.818Z,23.90
2018-06-27T13:55:53.908Z,23.70
2018-06-27T13:58:26.557Z,23.50
2018-06-27T14:00:59.112Z,23.70
2018-06-27T14:03:31.791Z,23.60
2018-06-27T14:06:04.676Z,23.50
2018-06-27T14:08:41.522Z,23.60
2018-06-27T14:15:39.961Z,23.70
2018-06-27T14:18:28.456Z,23.70
2018-06-27T14:21:15.071Z,23.50
2018-06-27T14:23:48.056Z,23.60
2018-06-27T14:26:20.754Z,23.70
2018-06-27T14:28:53.253Z,23.70
2018-06-27T14:31:26.119Z,23.90
2018-06-27T14:33:58.899Z,24.30
2018-06-27T14:36:31.591Z,24.50
2018-06-27T14:39:06.600Z,24.40
2018-06-27T14:41:39.547Z,24.10
2018-06-27T14:44:12.094Z,24.00
2018-06-27T14:46:44.560Z,24.00
2018-06-27T14:49:17.290Z,24.00
2018-06-27T14:51:50.131Z,24.20
2018-06-27T14:54:22.651Z,24.30
2018-06-27T14:56:55.263Z,24.40
2018-06-27T14:59:27.861Z,24.10
2018-06-27T15:02:01.318Z,23.90
2018-06-27T15:04:34.297Z,23.80
2018-06-27T15:07:07.210Z,23.80
2018-06-27T15:09:40.090Z,23.70
2018-06-27T15:12:13.881Z,23.90
2018-06-27T15:14:46.594Z,23.90
2018-06-27T15:17:20.342Z,24.00
2018-06-27T15:19:53.169Z,24.00
2018-06-27T15:22:25.645Z,23.90
2018-06-27T15:24:58.767Z,24.20
2018-06-27T15:27:31.935Z,24.40
2018-06-27T15:30:04.984Z,24.50
2018-06-27T15:32:37.654Z,24.60
2018-06-27T15:35:10.380Z,24.80
2018-06-27T15:37:43.089Z,24.70
2018-06-27T15:40:15.581Z,24.60
2018-06-27T15:42:48.369Z,24.50
2018-06-27T15:45:21.441Z,24.50
2018-06-27T15:47:53.859Z,24.60
2018-06-27T15:50:26.950Z,24.90
2018-06-27T15:52:59.757Z,24.90
2018-06-27T15:55:32.292Z,24.70
2018-06-27T15:58:06.786Z,24.70
2018-06-27T16:00:39.322Z,24.60
2018-06-27T16:03:12.583Z,24.70
2018-06-27T16:05:45.172Z,24.80
2018-06-27T16:08:17.800Z,24.80
2018-06-27T16:10:50.912Z,24.80
2018-06-27T16:13:23.893Z,24.70
2018-06-27T16:15:56.560Z,24.70
2018-06-27T16:18:29.254Z,24.70
2018-06-27T16:21:01.830Z,24.60
2018-06-27T16:23:34.401Z,24.50
2018-06-27T16:26:07.079Z,24.40
2018-06-27T16:28:39.862Z,24.40
2018-06-27T16:31:12.973Z,24.60
2018-06-27T16:33:45.538Z,24.70
2018-06-27T16:36:18.281Z,24.50
2018-06-27T16:38:50.935Z,24.60
2018-06-27T16:41:23.420Z,24.80
2018-06-27T16:46:28.699Z,24.70
2018-06-27T16:49:01.523Z,24.70
2018-06-27T16:51:34.169Z,24.70
2018-06-27T16:54:07.081Z,24.90
2018-06-27T16:56:39.880Z,24.80
2018-06-27T16:59:13.753Z,24.70
2018-06-27T17:01:46.222Z,24.60
2018-06-27T17:04:19.091Z,24.70
2018-06-27T17:06:51.842Z,24.80
2018-06-27T17:09:24.420Z,24.70
2018-06-27T17:11:57.568Z,24.70
2018-06-27T17:14:30.562Z,24.80
2018-06-27T17:17:03.584Z,24.90
2018-06-27T17:22:08.855Z,25.10
2018-06-27T17:24:41.469Z,24.80
2018-06-27T17:27:14.069Z,24.70
2018-06-27T17:29:48.300Z,24.70
2018-06-27T17:32:21.883Z,24.60
2018-06-27T17:34:54.501Z,24.30
2018-06-27T17:37:27.171Z,24.20
2018-06-27T17:40:01.287Z,24.10
2018-06-27T17:42:33.763Z,24.10
2018-06-27T17:45:06.361Z,24.10
2018-06-27T17:47:38.899Z,24.10
2018-06-27T17:50:11.555Z,23.90
2018-06-27T17:52:44.099Z,23.70
2018-06-27T17:55:16.834Z,23.70
2018-06-27T17:57:49.413Z,23.60
2018-06-27T18:00:21.991Z,23.50
2018-06-27T18:02:54.529Z,23.40
2018-06-27T18:05:27.170Z,23.30
2018-06-27T18:07:59.944Z,23.30
2018-06-27T18:10:32.741Z,23.30
2018-06-27T18:13:05.722Z,23.20
2018-06-27T18:15:38.186Z,23.20
2018-06-27T18:18:10.676Z,23.20
2018-06-27T18:20:43.242Z,23.10
2018-06-27T18:23:15.826Z,23.20
2018-06-27T18:25:48.747Z,23.20
2018-06-27T18:28:21.244Z,23.20
2018-06-27T18:30:53.924Z,23.20
2018-06-27T18:33:26.500Z,23.20
2018-06-27T18:35:59.039Z,23.20
2018-06-27T18:38:31.627Z,23.20
2018-06-27T18:41:04.818Z,23.10
2018-06-27T18:43:37.314Z,23.10
2018-06-27T18:46:09.834Z,23.10
2018-06-27T18:48:42.625Z,23.10
2018-06-27T18:51:15.298Z,23.00
2018-06-27T18:53:47.941Z,23.00
2018-06-27T18:56:20.976Z,22.90
2018-06-27T18:58:53.923Z,22.80
2018-06-27T19:01:27.008Z,22.80
2018-06-27T19:04:00.010Z,22.70
2018-06-27T19:06:32.698Z,22.70
2018-06-27T19:09:08.503Z,22.60
2018-06-27T19:11:41.729Z,22.50
2018-06-27T19:14:14.413Z,22.40
2018-06-27T19:16:46.875Z,22.30
2018-06-27T19:19:19.461Z,22.30
2018-06-27T19:21:51.991Z,22.20
2018-06-27T19:24:24.519Z,22.20
2018-06-27T19:26:57.310Z,22.10
2018-06-27T19:29:30.114Z,22.00
2018-06-27T19:32:02.700Z,22.00
2018-06-27T19:34:36.393Z,21.80
2018-06-27T19:37:09.205Z,21.80
2018-06-27T19:39:41.782Z,21.70
2018-06-27T19:42:16.317Z,21.60
2018-06-27T19:44:48.883Z,21.50
2018-06-27T19:47:21.402Z,21.50
2018-06-27T19:49:55.542Z,21.50
2018-06-27T19:52:28.444Z,21.40
2018-06-27T19:55:01.593Z,21.30
2018-06-27T19:57:34.086Z,21.30
2018-06-27T20:00:06.700Z,21.30
2018-06-27T20:02:39.886Z,21.20
2018-06-27T20:05:12.943Z,21.20
2018-06-27T20:07:45.543Z,21.20
2018-06-27T20:10:18.033Z,21.10
2018-06-27T20:12:50.665Z,21.00
2018-06-27T20:15:23.344Z,21.00
2018-06-27T20:17:55.815Z,20.90
2018-06-27T20:20:28.518Z,20.80
2018-06-27T20:23:01.218Z,20.80
2018-06-27T20:25:33.767Z,20.70
2018-06-27T20:28:06.859Z,20.70
2018-06-27T20:30:39.357Z,20.60
2018-06-27T20:33:12.137Z,20.60
2018-06-27T20:35:44.667Z,20.50
2018-06-27T20:38:17.185Z,20.40
2018-06-27T20:40:50.694Z,20.40
2018-06-27T20:43:24.121Z,20.40
2018-06-27T20:45:56.615Z,20.30
2018-06-27T20:48:29.612Z,20.30
2018-06-27T20:51:02.136Z,20.30
2018-06-27T20:53:34.577Z,20.20
2018-06-27T20:56:07.227Z,20.20
2018-06-27T20:58:39.735Z,20.20
2018-06-27T21:01:12.531Z,20.10
2018-06-27T21:06:17.756Z,20.00
2018-06-27T21:08:50.664Z,19.90
2018-06-27T21:11:23.181Z,19.90
2018-06-27T21:13:55.914Z,19.90
2018-06-27T21:16:28.398Z,19.80
2018-06-27T21:19:01.195Z,19.80
2018-06-27T21:21:33.967Z,19.70
2018-06-27T21:26:39.039Z,19.70
2018-06-27T21:29:12.319Z,19.60
2018-06-27T21:34:17.376Z,19.50
2018-06-27T21:36:49.844Z,19.50
2018-06-27T21:39:22.531Z,19.40
2018-06-27T21:41:54.991Z,19.50
2018-06-27T21:44:29.934Z,19.40
2018-06-27T21:47:02.585Z,19.30
2018-06-27T21:49:35.154Z,19.30
2018-06-27T21:52:09.245Z,19.20
2018-06-27T21:54:41.660Z,19.20
2018-06-27T21:57:14.132Z,19.20
2018-06-27T21:59:46.596Z,19.20
2018-06-27T22:02:19.095Z,19.20
2018-06-27T22:04:51.663Z,19.10
2018-06-27T22:07:25.039Z,19.10
2018-06-27T22:12:29.979Z,19.00
2018-06-27T22:15:02.542Z,19.00
2018-06-27T22:17:35.066Z,18.90
2018-06-27T22:20:07.552Z,18.90
2018-06-27T22:22:40.033Z,18.90
2018-06-27T22:25:12.571Z,18.90
2018-06-27T22:30:17.635Z,18.70
2018-06-27T22:32:50.164Z,18.70
2018-06-27T22:35:22.865Z,18.70
2018-06-27T22:37:55.329Z,18.70
2018-06-27T22:40:28.193Z,18.60
2018-06-27T22:43:00.696Z,18.60
2018-06-27T22:45:33.257Z,18.60
2018-06-27T22:48:05.681Z,18.60
2018-06-27T22:50:38.208Z,18.50
2018-06-27T22:53:10.780Z,18.50
2018-06-27T22:55:43.427Z,18.50
2018-06-27T22:58:15.863Z,18.50
2018-06-27T23:00:48.617Z,18.40
2018-06-27T23:03:21.184Z,18.40
2018-06-27T23:05:53.844Z,18.30
2018-06-27T23:08:26.267Z,18.30
2018-06-27T23:10:58.800Z,18.20
2018-06-27T23:13:31.416Z,18.20
2018-06-27T23:16:04.394Z,18.20
2018-06-27T23:18:36.901Z,18.10
2018-06-27T23:21:09.577Z,18.10
2018-06-27T23:23:42.014Z,18.10
2018-06-27T23:26:14.497Z,18.00
2018-06-27T23:28:46.966Z,18.00
2018-06-27T23:31:20.327Z,18.00
2018-06-27T23:33:52.997Z,17.90
2018-06-27T23:36:25.458Z,17.90
2018-06-27T23:38:57.929Z,17.80
2018-06-27T23:41:30.417Z,17.80
2018-06-27T23:44:03.018Z,17.80
2018-06-27T23:49:08.120Z,17.70
2018-06-27T23:51:40.567Z,17.70
2018-06-27T23:54:13.011Z,17.60
2018-06-27T23:59:18.241Z,17.60
